Time;durP1;ratioP1;P1;durP2;ratioP2;P2;SDS_P1;SDS_P2;PMS_P1;PMS_P2;Temp;Humidity;BMP_temperature;BMP_pressure;BME280_temperature;BME280_humidity;BME280_pressure;Samples;Min_cycle;Max_cycle;Signal;HPM_P1;HPM_P2
2023/04/01 00:01:17;;;;;;;5.23;1.87;;;;;;;;;;5093399;28;20209;-89
2023/04/01 00:03:45;;;;;;;4.07;2.13;;;;;;;;;;5093859;28;20616;-89
2023/04/01 00:06:14;;;;;;;2.13;1.50;;;;;;;;;;5093313;28;20544;-92
2023/04/01 00:08:41;;;;;;;4.73;1.60;;;;;;;;;;5093659;28;20282;-88
2023/04/01 00:11:08;;;;;;;2.73;1.60;;;;;;;;;;5093228;28;20671;-88
2023/04/01 00:13:36;;;;;;;3.27;1.70;;;;;;;;;;5093705;28;20569;-88
2023/04/01 00:16:04;;;;;;;2.37;1.70;;;;;;;;;;5093098;28;20200;-89
2023/04/01 00:18:31;;;;;;;3.07;1.67;;;;;;;;;;5093635;28;20224;-88
2023/04/01 00:20:58;;;;;;;3.53;1.80;;;;;;;;;;5093939;28;20199;-90
2023/04/01 00:23:25;;;;;;;2.77;1.53;;;;;;;;;;5093460;28;20232;-89
2023/04/01 00:25:53;;;;;;;5.43;1.90;;;;;;;;;;5093582;28;20197;-90
2023/04/01 00:28:21;;;;;;;4.43;2.20;;;;;;;;;;5092962;28;20229;-90
2023/04/01 00:30:49;;;;;;;2.10;1.27;;;;;;;;;;5093930;28;20201;-91
2023/04/01 00:33:17;;;;;;;2.03;1.80;;;;;;;;;;5092616;28;20237;-89
2023/04/01 00:35:44;;;;;;;2.93;1.83;;;;;;;;;;5093785;28;20277;-90
2023/04/01 00:38:11;;;;;;;2.10;1.53;;;;;;;;;;5092983;28;20237;-91
2023/04/01 00:40:40;;;;;;;3.63;1.87;;;;;;;;;;5093677;28;20212;-89
2023/04/01 00:43:12;;;;;;;2.23;1.60;;;;;;;;;;5094716;28;20232;-89
2023/04/01 00:45:40;;;;;;;4.20;1.37;;;;;;;;;;5097708;28;20232;-89
2023/04/01 00:48:11;;;;;;;2.20;1.57;;;;;;;;;;5096475;28;20927;-88
2023/04/01 00:50:40;;;;;;;1.60;1.50;;;;;;;;;;5096646;28;20204;-87
2023/04/01 00:53:08;;;;;;;2.60;1.40;;;;;;;;;;5097212;28;20376;-88
2023/04/01 00:55:37;;;;;;;2.00;1.53;;;;;;;;;;5088338;28;20208;-87
2023/04/01 00:58:06;;;;;;;4.37;1.87;;;;;;;;;;5076378;28;20294;-88
2023/04/01 01:00:33;;;;;;;2.63;1.60;;;;;;;;;;5086927;28;20205;-88
2023/04/01 01:03:02;;;;;;;3.87;1.93;;;;;;;;;;5094888;28;20236;-88
2023/04/01 01:05:37;;;;;;;7.97;1.90;;;;;;;;;;5086066;28;20212;-88
2023/04/01 01:08:10;;;;;;;4.23;1.60;;;;;;;;;;5090103;28;20235;-90
2023/04/01 01:10:40;;;;;;;4.27;1.67;;;;;;;;;;5097196;28;20200;-89
2023/04/01 01:13:11;;;;;;;2.00;1.33;;;;;;;;;;5096198;28;20243;-89
2023/04/01 01:15:41;;;;;;;2.00;1.77;;;;;;;;;;5097218;28;20641;-89
2023/04/01 01:18:11;;;;;;;1.60;1.50;;;;;;;;;;5096494;28;20236;-88
2023/04/01 01:21:02;;;;;;;1.63;1.53;;;;;;;;;;5097273;28;20559;-89
2023/04/01 01:23:53;;;;;;;3.47;1.80;;;;;;;;;;5096385;28;20227;-87
2023/04/01 01:26:31;;;;;;;3.87;1.87;;;;;;;;;;5096302;28;20731;-88
2023/04/01 01:29:03;;;;;;;3.47;2.07;;;;;;;;;;5097039;28;20243;-88
2023/04/01 01:31:35;;;;;;;3.20;1.43;;;;;;;;;;5096171;28;20233;-90
2023/04/01 01:34:11;;;;;;;1.80;1.40;;;;;;;;;;5081031;28;20189;-89
2023/04/01 01:36:42;;;;;;;3.63;1.73;;;;;;;;;;5095849;28;20232;-89
2023/04/01 01:39:10;;;;;;;4.63;1.23;;;;;;;;;;5096510;28;20236;-88
2023/04/01 01:41:37;;;;;;;2.03;1.60;;;;;;;;;;5095834;28;20243;-89
2023/04/01 01:44:05;;;;;;;2.20;1.63;;;;;;;;;;5096735;28;20204;-89
2023/04/01 01:46:32;;;;;;;1.53;1.43;;;;;;;;;;5095863;28;20273;-87
2023/04/01 01:49:01;;;;;;;5.50;1.80;;;;;;;;;;5096785;28;20604;-89
2023/04/01 01:51:29;;;;;;;2.53;1.70;;;;;;;;;;5095657;28;20228;-88
2023/04/01 01:53:57;;;;;;;2.03;1.60;;;;;;;;;;5094949;28;20212;-88
2023/04/01 01:56:27;;;;;;;4.60;2.00;;;;;;;;;;5098315;28;20231;-88
2023/04/01 01:58:56;;;;;;;3.13;1.50;;;;;;;;;;5097583;28;20225;-87
2023/04/01 02:01:25;;;;;;;2.23;1.53;;;;;;;;;;5096361;28;20239;-89
2023/04/01 02:03:53;;;;;;;3.93;1.97;;;;;;;;;;5096258;28;20290;-90
2023/04/01 02:06:21;;;;;;;2.20;1.60;;;;;;;;;;5095569;28;20243;-88
2023/04/01 02:08:51;;;;;;;2.63;1.47;;;;;;;;;;5096312;28;20228;-88
2023/04/01 02:11:21;;;;;;;3.50;1.73;;;;;;;;;;5095287;28;20193;-88
2023/04/01 02:13:51;;;;;;;2.40;1.67;;;;;;;;;;5095746;28;20212;-88
2023/04/01 02:16:21;;;;;;;4.63;1.70;;;;;;;;;;5095238;28;20239;-89
2023/04/01 02:18:50;;;;;;;1.30;1.20;;;;;;;;;;5095531;28;20621;-89
2023/04/01 02:21:18;;;;;;;3.20;1.93;;;;;;;;;;5094786;28;20320;-88
2023/04/01 02:23:47;;;;;;;2.87;1.70;;;;;;;;;;5095226;28;20204;-89
2023/04/01 02:26:15;;;;;;;2.47;1.57;;;;;;;;;;5094523;28;20570;-88
2023/04/01 02:28:43;;;;;;;2.73;1.50;;;;;;;;;;5094928;28;20278;-88
2023/04/01 02:31:11;;;;;;;1.40;1.30;;;;;;;;;;5094181;28;20200;-90
2023/04/01 02:33:39;;;;;;;3.23;1.83;;;;;;;;;;5094322;28;20197;-88
2023/04/01 02:36:06;;;;;;;2.70;1.77;;;;;;;;;;5093829;28;20197;-88
2023/04/01 02:38:37;;;;;;;4.23;1.90;;;;;;;;;;5094490;28;20235;-88
2023/04/01 02:41:05;;;;;;;3.37;1.83;;;;;;;;;;5094333;28;20212;-89
2023/04/01 02:43:32;;;;;;;3.13;1.57;;;;;;;;;;5094624;28;20215;-89
2023/04/01 02:46:01;;;;;;;3.37;1.90;;;;;;;;;;5095433;28;20215;-89
2023/04/01 02:48:28;;;;;;;3.07;1.73;;;;;;;;;;5095235;28;20220;-87
2023/04/01 02:50:55;;;;;;;2.00;1.37;;;;;;;;;;5095114;28;20562;-89
2023/04/01 02:53:23;;;;;;;1.77;1.40;;;;;;;;;;5094452;28;20227;-88
2023/04/01 02:55:51;;;;;;;3.40;1.70;;;;;;;;;;5094731;28;20203;-89
2023/04/01 02:58:18;;;;;;;3.47;1.73;;;;;;;;;;5094396;28;20614;-90
2023/04/01 03:00:46;;;;;;;6.17;1.80;;;;;;;;;;5094899;28;20200;-88
2023/04/01 03:03:14;;;;;;;2.57;1.63;;;;;;;;;;5094166;28;20319;-89
2023/04/01 03:05:42;;;;;;;4.70;1.70;;;;;;;;;;5094363;28;20573;-89
2023/04/01 03:08:09;;;;;;;2.93;1.63;;;;;;;;;;5094380;28;20323;-89
2023/04/01 03:10:36;;;;;;;3.10;1.40;;;;;;;;;;5094741;28;20228;-89
2023/04/01 03:13:03;;;;;;;1.93;1.57;;;;;;;;;;5073659;28;20237;-90
2023/04/01 03:15:30;;;;;;;4.17;1.77;;;;;;;;;;5074326;28;20193;-88
2023/04/01 03:17:57;;;;;;;1.63;1.53;;;;;;;;;;5073761;28;20243;-89
2023/04/01 03:20:25;;;;;;;1.87;1.33;;;;;;;;;;5074492;28;20208;-89
2023/04/01 03:22:52;;;;;;;1.70;1.33;;;;;;;;;;5084116;28;20237;-89
2023/04/01 03:25:20;;;;;;;5.23;2.47;;;;;;;;;;5094516;28;20200;-88
2023/04/01 03:27:47;;;;;;;2.43;1.70;;;;;;;;;;5093707;28;20236;-90
2023/04/01 03:30:14;;;;;;;2.83;2.07;;;;;;;;;;5093878;28;20235;-89
2023/04/01 03:32:41;;;;;;;2.00;1.50;;;;;;;;;;5093568;28;20231;-90
2023/04/01 03:35:09;;;;;;;7.23;1.87;;;;;;;;;;5094364;28;20219;-89
2023/04/01 03:37:38;;;;;;;2.47;1.87;;;;;;;;;;5093766;28;20236;-90
2023/04/01 03:40:05;;;;;;;4.37;1.50;;;;;;;;;;5094546;28;20205;-90
2023/04/01 03:42:33;;;;;;;2.67;1.30;;;;;;;;;;5093181;28;20704;-89
2023/04/01 03:45:00;;;;;;;2.70;1.60;;;;;;;;;;5094249;28;20211;-89
2023/04/01 03:47:27;;;;;;;2.33;1.80;;;;;;;;;;5093542;28;20232;-90
2023/04/01 03:49:54;;;;;;;2.30;1.50;;;;;;;;;;5094560;28;20225;-90
2023/04/01 03:52:21;;;;;;;2.07;1.70;;;;;;;;;;5093217;28;20239;-90
2023/04/01 03:54:49;;;;;;;2.30;1.40;;;;;;;;;;5093963;28;20208;-89
2023/04/01 03:57:16;;;;;;;2.83;1.73;;;;;;;;;;5093311;28;20236;-88
2023/04/01 03:59:43;;;;;;;3.70;1.63;;;;;;;;;;5094237;28;20223;-87
2023/04/01 04:02:11;;;;;;;3.40;1.50;;;;;;;;;;5093175;28;20700;-88
2023/04/01 04:04:38;;;;;;;2.83;1.53;;;;;;;;;;5093790;28;20672;-88
2023/04/01 04:07:05;;;;;;;2.00;1.47;;;;;;;;;;5093267;28;20231;-89
2023/04/01 04:09:32;;;;;;;1.60;1.40;;;;;;;;;;5093497;28;20235;-88
2023/04/01 04:12:00;;;;;;;4.07;1.90;;;;;;;;;;5093135;28;20278;-88
2023/04/01 04:14:27;;;;;;;1.23;1.20;;;;;;;;;;5093473;28;20554;-87
2023/04/01 04:16:54;;;;;;;3.10;1.53;;;;;;;;;;5093180;28;20235;-88
2023/04/01 04:19:21;;;;;;;4.93;1.83;;;;;;;;;;5097652;28;20231;-88
2023/04/01 04:21:48;;;;;;;1.80;1.67;;;;;;;;;;5097439;28;20236;-88
2023/04/01 04:24:16;;;;;;;2.27;1.67;;;;;;;;;;5098044;28;20207;-89
2023/04/01 04:26:43;;;;;;;4.63;2.40;;;;;;;;;;5097425;28;20235;-89
2023/04/01 04:29:11;;;;;;;2.27;1.53;;;;;;;;;;5097687;28;20223;-88
2023/04/01 04:31:38;;;;;;;1.47;1.37;;;;;;;;;;5096840;28;20243;-88
2023/04/01 04:34:05;;;;;;;2.83;1.57;;;;;;;;;;5097420;28;20208;-89
2023/04/01 04:36:32;;;;;;;2.07;1.60;;;;;;;;;;5096770;28;20231;-89
2023/04/01 04:39:01;;;;;;;1.57;1.47;;;;;;;;;;5097651;28;20302;-88
2023/04/01 04:41:28;;;;;;;2.47;1.33;;;;;;;;;;5096444;28;20323;-90
2023/04/01 04:43:56;;;;;;;2.57;1.53;;;;;;;;;;5097264;28;20197;-89
2023/04/01 04:46:25;;;;;;;2.07;1.30;;;;;;;;;;5097552;28;20256;-89
2023/04/01 04:48:52;;;;;;;3.17;1.37;;;;;;;;;;5097755;28;20224;-89
2023/04/01 04:51:20;;;;;;;3.60;1.57;;;;;;;;;;5096358;28;20232;-89
2023/04/01 04:53:47;;;;;;;2.43;1.70;;;;;;;;;;5096837;28;20208;-89
2023/04/01 04:56:14;;;;;;;4.50;1.40;;;;;;;;;;5096555;28;20204;-89
2023/04/01 04:58:42;;;;;;;4.70;1.47;;;;;;;;;;5096975;28;20224;-89
2023/04/01 05:01:10;;;;;;;1.50;1.40;;;;;;;;;;5096031;28;20212;-89
2023/04/01 05:03:38;;;;;;;2.27;1.50;;;;;;;;;;5097336;28;20239;-89
2023/04/01 05:06:06;;;;;;;1.40;1.33;;;;;;;;;;5096637;28;20234;-88
2023/04/01 05:08:33;;;;;;;2.13;1.23;;;;;;;;;;5096743;28;20255;-90
2023/04/01 05:11:00;;;;;;;1.50;1.30;;;;;;;;;;5095949;28;20228;-90
2023/04/01 05:13:28;;;;;;;1.40;1.30;;;;;;;;;;5096907;28;20220;-91
2023/04/01 05:15:55;;;;;;;1.20;1.10;;;;;;;;;;5096677;28;20683;-89
2023/04/01 05:18:22;;;;;;;2.40;1.37;;;;;;;;;;5095969;28;20224;-90
2023/04/01 05:20:51;;;;;;;3.80;1.27;;;;;;;;;;5096734;28;20586;-89
2023/04/01 05:23:20;;;;;;;1.30;1.20;;;;;;;;;;5095909;28;20243;-88
2023/04/01 05:25:48;;;;;;;3.93;1.50;;;;;;;;;;5096709;28;20305;-89
2023/04/01 05:28:15;;;;;;;2.10;1.40;;;;;;;;;;5095698;28;20244;-90
2023/04/01 05:30:42;;;;;;;1.53;1.43;;;;;;;;;;5096424;28;20231;-88
2023/04/01 05:33:09;;;;;;;3.67;1.50;;;;;;;;;;5095194;28;20232;-89
2023/04/01 05:35:37;;;;;;;3.37;1.30;;;;;;;;;;5096456;28;20241;-89
2023/04/01 05:38:05;;;;;;;4.47;1.50;;;;;;;;;;5095367;28;20239;-90
2023/04/01 05:40:33;;;;;;;2.07;1.40;;;;;;;;;;5096991;28;20258;-89
2023/04/01 05:43:00;;;;;;;3.13;1.50;;;;;;;;;;5095338;28;20246;-90
2023/04/01 05:45:27;;;;;;;1.97;1.43;;;;;;;;;;5096458;28;20243;-90
2023/04/01 05:47:54;;;;;;;1.63;1.53;;;;;;;;;;5095451;28;20240;-91
2023/04/01 05:50:21;;;;;;;1.63;1.50;;;;;;;;;;5095946;28;20221;-90
2023/04/01 05:52:48;;;;;;;3.87;1.50;;;;;;;;;;5095099;28;20723;-89
2023/04/01 05:55:17;;;;;;;1.83;1.73;;;;;;;;;;5095998;28;20192;-90
2023/04/01 05:57:46;;;;;;;3.23;1.10;;;;;;;;;;5095229;28;20251;-90
2023/04/01 06:00:14;;;;;;;2.10;1.23;;;;;;;;;;5095705;28;20204;-89
2023/04/01 06:02:42;;;;;;;1.60;1.50;;;;;;;;;;5094755;28;20224;-90
2023/04/01 06:05:15;;;;;;;1.73;1.47;;;;;;;;;;5096919;28;20204;-90
2023/04/01 06:07:47;;;;;;;2.27;2.07;;;;;;;;;;5097979;28;20243;-90
2023/04/01 06:10:17;;;;;;;2.10;1.40;;;;;;;;;;5098498;28;20213;-89
2023/04/01 06:12:51;;;;;;;2.77;1.53;;;;;;;;;;5098183;28;20228;-89
2023/04/01 06:15:22;;;;;;;1.17;1.10;;;;;;;;;;5098666;28;20181;-91
2023/04/01 06:17:54;;;;;;;1.23;1.23;;;;;;;;;;5100584;28;20244;-88
2023/04/01 06:20:25;;;;;;;1.77;1.60;;;;;;;;;;5101751;28;20205;-90
2023/04/01 06:23:02;;;;;;;1.70;1.57;;;;;;;;;;5101138;28;20236;-89
2023/04/01 06:25:44;;;;;;;1.70;1.60;;;;;;;;;;5097002;28;20201;-88
2023/04/01 06:28:34;;;;;;;3.13;1.90;;;;;;;;;;5079189;28;20240;-88
2023/04/01 06:31:05;;;;;;;2.63;1.50;;;;;;;;;;5094720;28;20311;-87
2023/04/01 06:33:42;;;;;;;2.33;1.40;;;;;;;;;;5095281;28;20254;-88
2023/04/01 06:36:32;;;;;;;1.60;1.50;;;;;;;;;;5094596;28;20200;-89
2023/04/01 06:39:06;;;;;;;1.60;1.50;;;;;;;;;;5094608;28;20232;-88
2023/04/01 06:41:37;;;;;;;5.83;1.50;;;;;;;;;;5094260;28;20574;-89
2023/04/01 06:44:11;;;;;;;2.57;1.67;;;;;;;;;;5115326;28;20211;-89
2023/04/01 06:46:44;;;;;;;2.10;1.50;;;;;;;;;;5115187;28;20224;-88
2023/04/01 06:49:20;;;;;;;1.77;1.60;;;;;;;;;;5115568;28;20289;-89
2023/04/01 06:51:53;;;;;;;4.77;1.93;;;;;;;;;;5114351;28;20243;-88
2023/04/01 06:54:23;;;;;;;2.87;1.53;;;;;;;;;;5115230;28;20188;-89
2023/04/01 06:56:52;;;;;;;1.40;1.30;;;;;;;;;;5114933;28;20231;-90
2023/04/01 06:59:22;;;;;;;2.20;1.10;;;;;;;;;;5114950;28;20220;-89
2023/04/01 07:01:51;;;;;;;1.63;1.30;;;;;;;;;;5114830;28;20224;-88
2023/04/01 07:04:20;;;;;;;1.43;1.33;;;;;;;;;;5114822;28;20203;-91
2023/04/01 07:06:49;;;;;;;1.63;1.33;;;;;;;;;;5114422;28;20713;-89
2023/04/01 07:09:19;;;;;;;1.60;1.50;;;;;;;;;;5113106;28;20220;-89
2023/04/01 07:11:46;;;;;;;1.33;1.30;;;;;;;;;;5093583;28;20232;-87
2023/04/01 07:14:18;;;;;;;1.70;1.60;;;;;;;;;;5106425;28;20196;-91
2023/04/01 07:16:50;;;;;;;1.20;1.20;;;;;;;;;;5114815;28;20688;-91
2023/04/01 07:19:20;;;;;;;1.23;1.20;;;;;;;;;;5122758;28;20231;-90
2023/04/01 07:21:50;;;;;;;2.03;1.67;;;;;;;;;;5115162;28;20230;-91
2023/04/01 07:24:23;;;;;;;2.80;1.40;;;;;;;;;;5115165;28;20221;-91
2023/04/01 07:26:54;;;;;;;3.20;1.40;;;;;;;;;;5117378;28;20289;-91
2023/04/01 07:29:21;;;;;;;1.37;1.27;;;;;;;;;;5128194;28;20232;-91
2023/04/01 07:31:57;;;;;;;2.13;2.03;;;;;;;;;;5125185;28;20238;-91
2023/04/01 07:34:26;;;;;;;2.90;1.10;;;;;;;;;;5126193;28;20700;-91
2023/04/01 07:36:56;;;;;;;1.33;1.33;;;;;;;;;;5128241;28;20228;-93
2023/04/01 07:39:29;;;;;;;1.40;1.40;;;;;;;;;;5128259;28;20239;-92
2023/04/01 07:42:01;;;;;;;2.10;1.63;;;;;;;;;;5127961;28;20754;-91
2023/04/01 07:44:31;;;;;;;1.37;1.30;;;;;;;;;;5129407;28;20187;-92
2023/04/01 07:47:05;;;;;;;2.10;1.50;;;;;;;;;;5125121;28;20227;-92
2023/04/01 07:49:39;;;;;;;1.47;1.37;;;;;;;;;;5124721;28;20231;-92
2023/04/01 07:52:09;;;;;;;1.50;1.40;;;;;;;;;;5131461;28;20257;-91
2023/04/01 07:54:40;;;;;;;2.13;1.33;;;;;;;;;;5132422;28;20176;-90
2023/04/01 07:57:09;;;;;;;2.43;1.53;;;;;;;;;;5122508;28;20248;-88
2023/04/01 07:59:40;;;;;;;2.00;1.37;;;;;;;;;;5116115;28;20224;-91
2023/04/01 08:02:14;;;;;;;2.87;1.53;;;;;;;;;;5115414;28;20704;-91
2023/04/01 08:04:56;;;;;;;2.53;1.40;;;;;;;;;;5115374;28;20180;-89
2023/04/01 08:07:24;;;;;;;1.40;1.30;;;;;;;;;;5114546;28;20314;-91
2023/04/01 08:09:55;;;;;;;2.90;1.80;;;;;;;;;;5115170;28;20204;-91
2023/04/01 08:12:29;;;;;;;3.07;1.50;;;;;;;;;;5114697;28;20236;-91
2023/04/01 08:15:01;;;;;;;1.57;1.47;;;;;;;;;;5114886;28;20243;-88
2023/04/01 08:17:36;;;;;;;1.40;1.30;;;;;;;;;;5114695;28;20258;-92
2023/04/01 08:20:13;;;;;;;2.90;1.53;;;;;;;;;;5108546;28;20532;-91
2023/04/01 08:22:42;;;;;;;1.20;1.20;;;;;;;;;;5093936;28;20240;-88
2023/04/01 08:25:12;;;;;;;2.07;1.47;;;;;;;;;;5094763;28;20197;-90
2023/04/01 08:27:41;;;;;;;3.03;1.70;;;;;;;;;;5094087;28;20267;-91
2023/04/01 08:30:18;;;;;;;2.17;1.70;;;;;;;;;;5094521;28;20193;-89
2023/04/01 08:32:49;;;;;;;1.60;1.50;;;;;;;;;;5094434;28;20232;-91
2023/04/01 08:35:19;;;;;;;2.63;1.80;;;;;;;;;;5096524;28;20242;-91
2023/04/01 08:37:46;;;;;;;4.30;2.20;;;;;;;;;;5100923;28;20236;-90
2023/04/01 08:40:27;;;;;;;1.50;1.40;;;;;;;;;;5109071;28;20260;-91
2023/04/01 08:43:06;;;;;;;5.73;1.60;;;;;;;;;;5104115;28;20228;-90
2023/04/01 08:45:40;;;;;;;2.60;1.77;;;;;;;;;;5103225;28;20200;-88
2023/04/01 08:48:14;;;;;;;1.57;1.47;;;;;;;;;;5095534;28;20240;-88
2023/04/01 08:50:49;;;;;;;1.27;1.27;;;;;;;;;;5094373;28;20278;-87
2023/04/01 08:53:30;;;;;;;2.20;1.60;;;;;;;;;;5094378;28;20634;-88
2023/04/01 08:56:05;;;;;;;2.13;1.90;;;;;;;;;;5093701;28;20242;-86
2023/04/01 08:58:36;;;;;;;2.67;1.57;;;;;;;;;;5092950;28;20227;-87
2023/04/01 09:01:12;;;;;;;1.60;1.50;;;;;;;;;;5092894;28;20189;-88
2023/04/01 09:04:03;;;;;;;3.03;1.60;;;;;;;;;;5094512;28;20215;-89
2023/04/01 09:06:37;;;;;;;1.53;1.43;;;;;;;;;;5072232;28;20236;-88
2023/04/01 09:09:28;;;;;;;1.83;1.63;;;;;;;;;;5097758;28;20228;-88
2023/04/01 09:12:08;;;;;;;1.73;1.50;;;;;;;;;;5071918;28;20236;-88
2023/04/01 09:14:50;;;;;;;2.03;1.40;;;;;;;;;;5097349;28;20195;-89
2023/04/01 09:17:44;;;;;;;1.77;1.40;;;;;;;;;;5097006;28;20229;-90
2023/04/01 09:20:32;;;;;;;1.73;1.43;;;;;;;;;;5050505;28;20236;-90
2023/04/01 09:23:09;;;;;;;1.43;1.33;;;;;;;;;;5098274;28;20241;-90
2023/04/01 09:26:00;;;;;;;1.60;1.50;;;;;;;;;;5097587;28;20192;-91
2023/04/01 09:28:29;;;;;;;2.03;1.70;;;;;;;;;;5096627;28;20267;-89
2023/04/01 09:31:14;;;;;;;1.70;1.60;;;;;;;;;;5095973;28;20224;-89
2023/04/01 09:33:53;;;;;;;2.50;1.70;;;;;;;;;;5096892;28;20185;-89
2023/04/01 09:36:27;;;;;;;4.13;2.07;;;;;;;;;;5097400;28;20232;-91
2023/04/01 09:38:58;;;;;;;1.60;1.50;;;;;;;;;;5096197;28;20259;-89
2023/04/01 09:41:30;;;;;;;3.33;1.50;;;;;;;;;;5092908;28;20228;-89
2023/04/01 09:44:16;;;;;;;1.90;1.60;;;;;;;;;;5094691;28;20193;-89
2023/04/01 09:46:53;;;;;;;1.67;1.57;;;;;;;;;;5088800;28;20229;-89
2023/04/01 09:49:40;;;;;;;1.80;1.53;;;;;;;;;;5095977;28;20719;-88
2023/04/01 09:52:11;;;;;;;2.60;2.30;;;;;;;;;;5095260;28;20236;-89
2023/04/01 09:54:48;;;;;;;3.03;2.27;;;;;;;;;;5093187;28;20318;-88
2023/04/01 09:57:41;;;;;;;3.23;2.33;;;;;;;;;;5088236;28;20224;-88
2023/04/01 10:00:17;;;;;;;4.50;2.50;;;;;;;;;;5075087;28;20666;-87
2023/04/01 10:03:04;;;;;;;2.77;2.23;;;;;;;;;;5094551;28;20243;-88
2023/04/01 10:05:40;;;;;;;5.00;2.73;;;;;;;;;;5087422;28;20252;-87
2023/04/01 10:08:19;;;;;;;2.10;2.00;;;;;;;;;;5094513;28;20684;-88
2023/04/01 10:11:12;;;;;;;2.47;1.83;;;;;;;;;;5095142;28;20659;-86
2023/04/01 10:13:57;;;;;;;2.53;1.70;;;;;;;;;;5094461;28;20209;-88
2023/04/01 10:16:32;;;;;;;2.20;2.00;;;;;;;;;;5093639;28;20577;-87
2023/04/01 10:19:28;;;;;;;2.33;1.70;;;;;;;;;;5095267;28;20580;-89
2023/04/01 10:22:10;;;;;;;1.87;1.70;;;;;;;;;;5096606;28;20232;-89
2023/04/01 10:24:56;;;;;;;2.97;1.77;;;;;;;;;;5083001;28;20204;-88
2023/04/01 10:27:30;;;;;;;2.23;1.47;;;;;;;;;;5096091;28;20255;-89
2023/04/01 10:30:25;;;;;;;1.47;1.47;;;;;;;;;;5095975;28;20197;-88
2023/04/01 10:33:25;;;;;;;1.60;1.50;;;;;;;;;;5094656;28;20240;-89
2023/04/01 10:36:06;;;;;;;1.50;1.40;;;;;;;;;;5013657;28;20211;-88
2023/04/01 10:38:46;;;;;;;1.17;1.17;;;;;;;;;;5013222;28;20278;-88
2023/04/01 10:41:29;;;;;;;1.40;1.40;;;;;;;;;;5064565;28;20201;-89
2023/04/01 10:44:19;;;;;;;1.70;1.60;;;;;;;;;;5103827;22;20233;-86
2023/04/01 10:47:10;;;;;;;1.53;1.43;;;;;;;;;;5064804;28;20629;-86
2023/04/01 10:49:46;;;;;;;2.47;1.57;;;;;;;;;;5032417;28;20218;-86
2023/04/01 10:52:42;;;;;;;1.60;1.50;;;;;;;;;;5061876;28;20244;-86
2023/04/01 10:55:20;;;;;;;1.60;1.50;;;;;;;;;;5071895;28;20226;-86
2023/04/01 10:58:03;;;;;;;5.10;1.73;;;;;;;;;;5071608;28;20316;-86
2023/04/01 11:00:57;;;;;;;2.00;1.40;;;;;;;;;;5073756;28;20207;-86
2023/04/01 11:03:47;;;;;;;1.40;1.30;;;;;;;;;;5043874;28;20244;-85
2023/04/01 11:06:32;;;;;;;1.60;1.50;;;;;;;;;;5091428;28;20192;-85
2023/04/01 11:09:20;;;;;;;1.20;1.20;;;;;;;;;;5088816;28;20196;-85
2023/04/01 11:12:07;;;;;;;3.40;2.07;;;;;;;;;;5051842;28;20824;-85
2023/04/01 11:14:58;;;;;;;1.73;1.40;;;;;;;;;;5071692;28;20240;-85
2023/04/01 11:17:38;;;;;;;1.10;1.10;;;;;;;;;;5070506;28;20256;-85
2023/04/01 11:20:18;;;;;;;1.30;1.30;;;;;;;;;;5072145;28;20193;-85
2023/04/01 11:22:53;;;;;;;1.00;1.00;;;;;;;;;;5069575;28;20221;-85
2023/04/01 11:25:26;;;;;;;1.40;1.30;;;;;;;;;;5051618;28;20693;-85
2023/04/01 11:28:03;;;;;;;1.67;1.57;;;;;;;;;;5050366;28;20228;-86
2023/04/01 11:30:34;;;;;;;1.60;1.50;;;;;;;;;;5051450;28;20189;-87
2023/04/01 11:33:04;;;;;;;1.40;1.30;;;;;;;;;;5059670;28;20575;-88
2023/04/01 11:35:43;;;;;;;1.50;1.40;;;;;;;;;;5071645;28;20225;-87
2023/04/01 11:38:26;;;;;;;1.40;1.40;;;;;;;;;;5070289;28;20239;-86
2023/04/01 11:40:54;;;;;;;1.53;1.53;;;;;;;;;;5071526;28;20607;-87
2023/04/01 11:43:24;;;;;;;1.30;1.30;;;;;;;;;;5070276;28;20233;-87
2023/04/01 11:45:52;;;;;;;1.70;1.60;;;;;;;;;;5071104;28;20205;-86
2023/04/01 11:48:29;;;;;;;2.90;2.20;;;;;;;;;;5069936;28;20233;-86
2023/04/01 11:51:18;;;;;;;1.63;1.53;;;;;;;;;;5071066;28;20651;-88
2023/04/01 11:53:50;;;;;;;1.40;1.30;;;;;;;;;;5083751;28;20793;-86
2023/04/01 11:56:29;;;;;;;1.40;1.30;;;;;;;;;;5076079;28;20294;-86
2023/04/01 11:59:03;;;;;;;1.57;1.37;;;;;;;;;;5070852;28;20272;-87
2023/04/01 12:01:38;;;;;;;1.37;1.37;;;;;;;;;;5067476;28;20636;-86
2023/04/01 12:04:17;;;;;;;2.00;1.90;;;;;;;;;;5050915;28;20229;-86
2023/04/01 12:06:47;;;;;;;1.30;1.27;;;;;;;;;;5062841;28;20252;-86
2023/04/01 12:09:19;;;;;;;1.13;1.10;;;;;;;;;;5070809;28;20210;-87
2023/04/01 12:11:50;;;;;;;1.17;1.17;;;;;;;;;;5069865;28;20233;-86
2023/04/01 12:14:20;;;;;;;1.20;1.20;;;;;;;;;;5069826;28;20213;-87
2023/04/01 12:16:53;;;;;;;2.47;1.17;;;;;;;;;;5050273;28;20228;-88
2023/04/01 12:19:23;;;;;;;1.50;1.40;;;;;;;;;;5056291;28;20197;-86
2023/04/01 12:21:54;;;;;;;1.10;1.10;;;;;;;;;;5074711;28;20227;-86
2023/04/01 12:24:35;;;;;;;1.20;1.20;;;;;;;;;;5091154;28;20328;-86
2023/04/01 12:27:10;;;;;;;1.80;1.70;;;;;;;;;;5090167;28;20281;-85
2023/04/01 12:29:55;;;;;;;0.93;0.93;;;;;;;;;;5090703;28;20212;-85
2023/04/01 12:32:27;;;;;;;1.37;1.37;;;;;;;;;;5089578;28;20236;-87
2023/04/01 12:35:06;;;;;;;1.17;1.17;;;;;;;;;;5090873;28;20231;-85
2023/04/01 12:37:37;;;;;;;1.30;1.20;;;;;;;;;;5089874;28;20239;-85
2023/04/01 12:40:18;;;;;;;1.03;1.03;;;;;;;;;;5094752;28;20181;-84
2023/04/01 12:42:53;;;;;;;1.50;1.40;;;;;;;;;;5064324;28;20224;-86
2023/04/01 12:45:30;;;;;;;1.50;1.40;;;;;;;;;;5074102;28;20236;-83
2023/04/01 12:48:13;;;;;;;1.10;1.10;;;;;;;;;;5073428;28;20228;-84
2023/04/01 12:50:51;;;;;;;1.27;1.27;;;;;;;;;;5071234;28;20205;-87
2023/04/01 12:53:25;;;;;;;1.20;1.20;;;;;;;;;;5073665;28;20232;-87
2023/04/01 12:55:53;;;;;;;1.30;1.30;;;;;;;;;;5074622;28;20197;-88
2023/04/01 12:58:32;;;;;;;1.37;1.30;;;;;;;;;;5073384;28;20228;-87
2023/04/01 13:01:05;;;;;;;1.57;1.47;;;;;;;;;;5073897;28;20225;-87
2023/04/01 13:03:38;;;;;;;1.20;1.20;;;;;;;;;;5073962;28;20210;-90
2023/04/01 13:06:24;;;;;;;1.10;1.10;;;;;;;;;;5078707;28;20208;-88
2023/04/01 13:08:54;;;;;;;1.23;1.23;;;;;;;;;;5094066;28;20622;-87
2023/04/01 13:11:27;;;;;;;1.50;1.40;;;;;;;;;;5090979;28;20233;-88
2023/04/01 13:14:11;;;;;;;2.73;1.57;;;;;;;;;;5076166;28;20229;-88
2023/04/01 13:16:40;;;;;;;1.20;1.20;;;;;;;;;;5093622;28;20236;-88
2023/04/01 13:19:09;;;;;;;1.10;1.10;;;;;;;;;;5093955;28;20209;-87
2023/04/01 13:21:42;;;;;;;1.47;1.20;;;;;;;;;;5081283;28;20244;-87
2023/04/01 13:24:15;;;;;;;1.70;1.60;;;;;;;;;;5077504;28;20305;-87
2023/04/01 13:26:49;;;;;;;1.43;1.13;;;;;;;;;;5072573;28;20237;-86
2023/04/01 13:29:18;;;;;;;1.30;1.30;;;;;;;;;;5052510;28;20217;-87
2023/04/01 13:31:54;;;;;;;1.57;1.30;;;;;;;;;;5063977;28;20229;-86
2023/04/01 13:34:34;;;;;;;1.30;1.30;;;;;;;;;;5073512;28;20225;-86
2023/04/01 13:37:07;;;;;;;1.00;1.00;;;;;;;;;;5072907;28;20231;-87
2023/04/01 13:39:48;;;;;;;1.60;1.10;;;;;;;;;;5073841;28;20277;-87
2023/04/01 13:42:19;;;;;;;1.17;1.17;;;;;;;;;;5073037;28;20233;-87
2023/04/01 13:44:48;;;;;;;1.70;1.60;;;;;;;;;;5073387;28;20733;-87
2023/04/01 13:47:25;;;;;;;1.30;1.30;;;;;;;;;;5072388;28;20217;-86
2023/04/01 13:50:18;;;;;;;0.90;0.90;;;;;;;;;;5086433;28;20229;-85
2023/04/01 13:53:00;;;;;;;1.20;1.20;;;;;;;;;;5092746;28;20229;-87
2023/04/01 13:55:50;;;;;;;1.10;1.10;;;;;;;;;;5090265;28;20229;-87
2023/04/01 13:58:51;;;;;;;1.50;1.40;;;;;;;;;;5071947;28;20233;-85
2023/04/01 14:01:25;;;;;;;1.20;1.20;;;;;;;;;;5010062;28;20239;-87
2023/04/01 14:04:04;;;;;;;1.63;1.53;;;;;;;;;;5010920;28;20230;-86
2023/04/01 14:06:37;;;;;;;1.20;1.20;;;;;;;;;;5045801;28;20229;-89
2023/04/01 14:09:31;;;;;;;0.80;0.80;;;;;;;;;;5072645;28;20197;-86
2023/04/01 14:12:04;;;;;;;1.10;1.10;;;;;;;;;;5027775;28;20745;-86
2023/04/01 14:14:35;;;;;;;1.20;1.10;;;;;;;;;;5053371;28;20595;-86
2023/04/01 14:17:19;;;;;;;1.20;1.20;;;;;;;;;;5056812;28;20233;-86
2023/04/01 14:20:02;;;;;;;1.10;1.10;;;;;;;;;;5044157;28;20214;-86
2023/04/01 14:22:34;;;;;;;1.10;1.10;;;;;;;;;;5028780;28;20237;-86
2023/04/01 14:25:14;;;;;;;1.47;1.37;;;;;;;;;;5072691;28;20252;-85
2023/04/01 14:27:46;;;;;;;1.40;1.30;;;;;;;;;;5071403;28;20704;-85
2023/04/01 14:30:22;;;;;;;1.17;1.10;;;;;;;;;;5072392;28;20285;-83
2023/04/01 14:32:53;;;;;;;1.20;1.20;;;;;;;;;;5071675;28;20237;-82
2023/04/01 14:35:26;;;;;;;1.23;1.23;;;;;;;;;;5072766;28;20248;-82
2023/04/01 14:38:12;;;;;;;1.20;1.20;;;;;;;;;;5071469;28;20244;-82
2023/04/01 14:40:50;;;;;;;1.70;1.40;;;;;;;;;;5072709;28;20205;-83
2023/04/01 14:43:26;;;;;;;1.37;1.33;;;;;;;;;;5071280;28;20308;-82
2023/04/01 14:46:01;;;;;;;1.13;1.10;;;;;;;;;;5087616;28;20197;-84
2023/04/01 14:48:33;;;;;;;1.33;1.33;;;;;;;;;;5091567;28;20228;-84
2023/04/01 14:51:05;;;;;;;1.00;1.00;;;;;;;;;;5082951;28;20237;-84
2023/04/01 14:53:33;;;;;;;1.20;1.20;;;;;;;;;;5072363;28;20213;-84
2023/04/01 14:56:03;;;;;;;1.00;1.00;;;;;;;;;;5051410;28;20206;-86
2023/04/01 14:58:41;;;;;;;1.20;1.10;;;;;;;;;;5050890;28;20649;-86
2023/04/01 15:01:14;;;;;;;2.00;1.00;;;;;;;;;;5070523;28;20193;-87
2023/04/01 15:03:47;;;;;;;1.20;1.20;;;;;;;;;;5092457;28;20220;-84
2023/04/01 15:06:24;;;;;;;1.10;1.10;;;;;;;;;;5092009;28;20563;-87
2023/04/01 15:08:55;;;;;;;1.10;1.10;;;;;;;;;;5091737;28;20193;-87
2023/04/01 15:11:27;;;;;;;2.27;1.13;;;;;;;;;;5091253;28;20228;-86
2023/04/01 15:14:13;;;;;;;1.10;1.00;;;;;;;;;;5091328;28;20224;-86
2023/04/01 15:16:43;;;;;;;1.30;1.20;;;;;;;;;;5091339;28;20691;-86
2023/04/01 15:19:16;;;;;;;2.00;1.50;;;;;;;;;;5091570;28;20197;-86